createdAt,value
2018-06-08T00:00:51.568Z,21.54
2018-06-08T00:02:00.436Z,21.46
2018-06-08T00:03:09.850Z,21.47
2018-06-08T00:04:18.756Z,21.43
2018-06-08T00:05:27.585Z,21.46
2018-06-08T00:06:36.454Z,21.43
2018-06-08T00:07:45.595Z,21.35
2018-06-08T00:08:54.574Z,21.42
2018-06-08T00:10:03.436Z,21.37
2018-06-08T00:11:12.499Z,21.4
2018-06-08T00:12:21.364Z,21.34
2018-06-08T00:13:30.228Z,21.31
2018-06-08T00:14:39.089Z,21.31
2018-06-08T00:15:48.235Z,21.34
2018-06-08T00:16:57.386Z,21.27
2018-06-08T00:18:06.267Z,21.31
2018-06-08T00:19:15.116Z,21.24
2018-06-08T00:20:23.980Z,21.16
2018-06-08T00:21:32.847Z,21.13
2018-06-08T00:22:42.135Z,21.21
2018-06-08T00:23:51.277Z,21.09
2018-06-08T00:25:00.143Z,21.07
2018-06-08T00:26:09.288Z,21.09
2018-06-08T00:27:18.154Z,20.99
2018-06-08T00:28:27.067Z,20.94
2018-06-08T00:29:35.931Z,20.95
2018-06-08T00:30:44.794Z,20.91
2018-06-08T00:31:53.659Z,20.91
2018-06-08T00:33:02.532Z,20.95
2018-06-08T00:34:11.393Z,20.99
2018-06-08T00:35:20.259Z,20.95
2018-06-08T00:36:29.401Z,20.88
2018-06-08T00:37:38.267Z,20.91
2018-06-08T00:38:47.133Z,20.87
2018-06-08T00:39:56.347Z,20.79
2018-06-08T00:41:05.212Z,20.85
2018-06-08T00:42:14.074Z,20.85
2018-06-08T00:43:22.938Z,20.84
2018-06-08T00:44:32.082Z,20.84
2018-06-08T00:45:41.269Z,20.79
2018-06-08T00:46:50.131Z,20.8
2018-06-08T00:47:58.996Z,20.84
2018-06-08T00:49:07.863Z,20.84
2018-06-08T00:50:16.726Z,20.74
2018-06-08T00:51:25.591Z,20.7
2018-06-08T00:52:34.455Z,20.74
2018-06-08T00:53:43.591Z,20.69
2018-06-08T00:54:52.726Z,20.7
2018-06-08T00:56:01.590Z,20.69
2018-06-08T00:57:10.785Z,20.67
2018-06-08T00:58:19.647Z,20.59
2018-06-08T00:59:28.789Z,20.64
2018-06-08T01:00:37.653Z,20.5
2018-06-08T01:01:46.522Z,20.57
2018-06-08T01:02:55.391Z,20.51
2018-06-08T01:04:04.249Z,20.54
2018-06-08T01:05:13.114Z,20.48
2018-06-08T01:06:22.740Z,20.51
2018-06-08T01:07:31.882Z,20.33
2018-06-08T01:08:40.746Z,20.33
2018-06-08T01:09:49.611Z,20.33
2018-06-08T01:10:58.751Z,20.28
2018-06-08T01:12:07.614Z,20.21
2018-06-08T01:13:16.477Z,20.17
2018-06-08T01:14:25.491Z,20.21
2018-06-08T01:15:34.356Z,20.17
2018-06-08T01:16:43.217Z,20.18
2018-06-08T01:17:52.082Z,20.16
2018-06-08T01:19:00.945Z,20.17
2018-06-08T01:20:09.808Z,20.2
2018-06-08T01:21:18.670Z,20.2
2018-06-08T01:22:27.535Z,20.17
2018-06-08T01:23:36.729Z,20.17
2018-06-08T01:24:45.591Z,20.17
2018-06-08T01:25:54.454Z,20.21
2018-06-08T01:27:03.323Z,20.2
2018-06-08T01:28:12.189Z,20.14
2018-06-08T01:29:21.054Z,20.14
2018-06-08T01:30:29.916Z,20.1
2018-06-08T01:31:39.156Z,20.05
2018-06-08T01:32:48.018Z,20.05
2018-06-08T01:33:57.169Z,20.05
2018-06-08T01:35:06.311Z,20.1
2018-06-08T01:36:15.451Z,19.99
2018-06-08T01:37:24.416Z,20.03
2018-06-08T01:38:33.562Z,19.95
2018-06-08T01:39:42.426Z,19.92
2018-06-08T01:40:51.290Z,19.87
2018-06-08T01:42:00.158Z,19.86
2018-06-08T01:43:09.118Z,19.83
2018-06-08T01:44:17.982Z,19.83
2018-06-08T01:45:27.123Z,19.81
2018-06-08T01:46:35.986Z,19.74
2018-06-08T01:47:45.130Z,19.69
2018-06-08T01:48:54.245Z,19.73
2018-06-08T01:50:03.106Z,19.74
2018-06-08T01:51:12.249Z,19.68
2018-06-08T01:52:21.115Z,19.65
2018-06-08T01:53:29.977Z,19.65
2018-06-08T01:54:39.191Z,19.66
2018-06-08T01:55:48.330Z,19.68
2018-06-08T01:56:57.470Z,19.71
2018-06-08T01:58:06.615Z,19.58
2018-06-08T01:59:15.476Z,19.61
2018-06-08T02:00:24.973Z,19.56
2018-06-08T02:01:33.884Z,19.61
2018-06-08T02:02:43.035Z,19.62
2018-06-08T02:03:52.180Z,19.59
2018-06-08T02:05:01.043Z,19.47
2018-06-08T02:06:10.160Z,19.46
2018-06-08T02:07:19.023Z,19.48
2018-06-08T02:08:27.888Z,19.41
2018-06-08T02:09:36.753Z,19.46
2018-06-08T02:10:45.618Z,19.46
2018-06-08T02:11:54.535Z,19.41
2018-06-08T02:13:03.399Z,19.44
2018-06-08T02:14:12.263Z,19.44
2018-06-08T02:15:21.130Z,19.39
2018-06-08T02:16:29.994Z,19.37
2018-06-08T02:17:39.189Z,19.4
2018-06-08T02:18:48.051Z,19.4
2018-06-08T02:19:56.919Z,19.41
2018-06-08T02:21:05.783Z,19.31
2018-06-08T02:22:14.922Z,19.21
2018-06-08T02:23:23.785Z,19.29
2018-06-08T02:24:32.648Z,19.23
2018-06-08T02:25:41.514Z,19.33
2018-06-08T02:26:50.378Z,19.28
2018-06-08T02:27:59.240Z,19.28
2018-06-08T02:29:08.355Z,19.26
2018-06-08T02:30:17.497Z,19.22
2018-06-08T02:31:26.913Z,19.32
2018-06-08T02:32:36.331Z,19.22
2018-06-08T02:33:46.030Z,19.23
2018-06-08T02:34:55.324Z,19.22
2018-06-08T02:36:04.746Z,19.16
2018-06-08T02:37:13.941Z,19.16
2018-06-08T02:38:23.085Z,19.18
2018-06-08T02:39:31.942Z,19.16
2018-06-08T02:40:40.806Z,19.21
2018-06-08T02:41:50.232Z,19.16
2018-06-08T02:42:59.100Z,19.1
2018-06-08T02:44:08.249Z,19.08
2018-06-08T02:45:17.114Z,19.1
2018-06-08T02:46:26.641Z,19.04
2018-06-08T02:47:36.897Z,19.04
2018-06-08T02:48:46.044Z,19.1
2018-06-08T02:49:55.192Z,19.08
2018-06-08T02:51:04.060Z,18.99
2018-06-08T02:52:13.471Z,18.95
2018-06-08T02:53:22.888Z,18.98
2018-06-08T02:54:31.756Z,18.98
2018-06-08T02:55:40.897Z,18.87
2018-06-08T02:56:50.047Z,18.87
2018-06-08T02:57:59.341Z,18.85
2018-06-08T02:59:08.208Z,18.85
2018-06-08T03:00:17.076Z,18.82
2018-06-08T03:01:26.217Z,18.8
2018-06-08T03:02:35.638Z,18.75
2018-06-08T03:03:44.656Z,18.8
2018-06-08T03:04:53.798Z,18.82
2018-06-08T03:06:02.945Z,18.82
2018-06-08T03:07:12.088Z,18.72
2018-06-08T03:08:20.955Z,18.82
2018-06-08T03:09:29.870Z,18.8
2018-06-08T03:10:38.740Z,18.82
2018-06-08T03:11:47.601Z,18.88
2018-06-08T03:12:56.743Z,18.84
2018-06-08T03:14:05.607Z,18.76
2018-06-08T03:15:14.470Z,18.69
2018-06-08T03:16:23.331Z,18.69
2018-06-08T03:17:32.195Z,18.65
2018-06-08T03:18:41.059Z,18.72
2018-06-08T03:19:50.199Z,18.69
2018-06-08T03:20:59.114Z,18.6
2018-06-08T03:22:08.256Z,18.62
2018-06-08T03:23:17.121Z,18.58
2018-06-08T03:24:26.278Z,18.6
2018-06-08T03:25:35.424Z,18.58
2018-06-08T03:26:44.290Z,18.58
2018-06-08T03:27:53.152Z,18.66
2018-06-08T03:29:02.289Z,18.65
2018-06-08T03:30:11.431Z,18.72
2018-06-08T03:31:20.583Z,18.65
2018-06-08T03:32:29.602Z,18.65
2018-06-08T03:33:38.738Z,18.63
2018-06-08T03:34:47.603Z,18.66
2018-06-08T03:35:56.801Z,18.63
2018-06-08T03:37:05.909Z,18.7
2018-06-08T03:38:15.401Z,18.7
2018-06-08T03:39:24.260Z,18.72
2018-06-08T03:40:33.125Z,18.66
2018-06-08T03:41:42.266Z,18.69
2018-06-08T03:42:51.409Z,18.69
2018-06-08T03:44:00.374Z,18.62
2018-06-08T03:45:09.515Z,18.66
2018-06-08T03:46:18.655Z,18.63
2018-06-08T03:47:27.800Z,18.66
2018-06-08T03:48:36.943Z,18.62
2018-06-08T03:49:46.431Z,18.65
2018-06-08T03:50:55.295Z,18.6
2018-06-08T03:52:04.158Z,18.66
2018-06-08T03:53:13.021Z,18.65
2018-06-08T03:54:21.902Z,18.73
2018-06-08T03:55:30.801Z,18.65
2018-06-08T03:56:40.220Z,18.75
2018-06-08T03:57:49.359Z,18.75
2018-06-08T03:58:58.498Z,18.66
2018-06-08T04:00:07.359Z,18.62
2018-06-08T04:01:16.325Z,18.75
2018-06-08T04:02:25.237Z,18.66
2018-06-08T04:03:34.053Z,18.72
2018-06-08T04:04:42.916Z,18.58
2018-06-08T04:05:51.800Z,18.6
2018-06-08T04:07:00.816Z,18.57
2018-06-08T04:08:09.683Z,18.62
2018-06-08T04:09:18.544Z,18.65
2018-06-08T04:10:27.406Z,18.66
2018-06-08T04:11:36.274Z,18.62
2018-06-08T04:12:45.239Z,18.62
2018-06-08T04:13:54.103Z,18.62
2018-06-08T04:15:02.974Z,18.63
2018-06-08T04:16:11.838Z,18.65
2018-06-08T04:17:20.702Z,18.65
2018-06-08T04:18:30.133Z,18.67
2018-06-08T04:19:39.275Z,18.62
2018-06-08T04:20:48.418Z,18.72
2018-06-08T04:21:57.284Z,18.67
2018-06-08T04:23:06.151Z,18.69
2018-06-08T04:24:15.163Z,18.67
2018-06-08T04:25:24.025Z,18.65
2018-06-08T04:26:32.891Z,18.73
2018-06-08T04:27:41.753Z,18.65
2018-06-08T04:28:50.614Z,18.73
2018-06-08T04:29:59.828Z,18.8
2018-06-08T04:31:08.693Z,18.76
2018-06-08T04:32:17.556Z,18.76
2018-06-08T04:33:26.421Z,18.88
2018-06-08T04:34:35.560Z,18.85
2018-06-08T04:35:44.521Z,18.84
2018-06-08T04:36:53.386Z,18.81
2018-06-08T04:38:02.251Z,18.9
2018-06-08T04:39:11.113Z,18.85
2018-06-08T04:40:20.265Z,18.84
2018-06-08T04:41:29.138Z,18.91
2018-06-08T04:42:38.644Z,19.02
2018-06-08T04:43:47.790Z,18.94
2018-06-08T04:44:56.655Z,18.98
2018-06-08T04:46:05.520Z,19.08
2018-06-08T04:47:14.983Z,18.94
2018-06-08T04:48:23.848Z,18.95
2018-06-08T04:49:32.706Z,18.9
2018-06-08T04:50:41.848Z,19.07
2018-06-08T04:51:50.960Z,19.06
2018-06-08T04:52:59.823Z,19.06
2018-06-08T04:54:08.687Z,19.1
2018-06-08T04:55:18.034Z,19.1
2018-06-08T04:56:27.156Z,19.08
2018-06-08T04:57:37.027Z,19.11
2018-06-08T04:58:46.213Z,19.06
2018-06-08T04:59:56.969Z,19.21
2018-06-08T05:01:06.248Z,19.19
2018-06-08T05:02:16.608Z,19.21
2018-06-08T05:03:26.497Z,19.14
2018-06-08T05:04:36.441Z,19.21
2018-06-08T05:05:45.946Z,19.23
2018-06-08T05:06:57.015Z,19.39
2018-06-08T05:08:06.412Z,19.31
2018-06-08T05:09:15.739Z,19.4
2018-06-08T05:10:24.650Z,19.39
2018-06-08T05:11:33.801Z,19.39
2018-06-08T05:12:43.013Z,19.37
2018-06-08T05:13:52.160Z,19.37
2018-06-08T05:15:01.022Z,19.41
2018-06-08T05:16:09.886Z,19.37
2018-06-08T05:17:19.028Z,19.46
2018-06-08T05:18:28.580Z,19.51
2018-06-08T05:19:37.444Z,19.51
2018-06-08T05:20:46.306Z,19.46
2018-06-08T05:21:55.173Z,19.48
2018-06-08T05:23:04.394Z,19.5
2018-06-08T05:24:13.534Z,19.55
2018-06-08T05:25:22.400Z,19.56
2018-06-08T05:26:31.269Z,19.62
2018-06-08T05:28:12.190Z,19.65
2018-06-08T05:29:21.482Z,19.61
2018-06-08T05:30:30.900Z,19.56
2018-06-08T05:31:40.139Z,19.68
2018-06-08T05:32:48.918Z,19.73
2018-06-08T05:33:57.780Z,19.68
2018-06-08T05:35:06.658Z,19.68
2018-06-08T05:36:15.614Z,19.68
2018-06-08T05:37:24.437Z,19.77
2018-06-08T05:38:33.261Z,19.78
2018-06-08T05:39:42.121Z,19.78
2018-06-08T05:40:51.365Z,19.88
2018-06-08T05:42:00.227Z,19.91
2018-06-08T05:43:09.193Z,19.91
2018-06-08T05:44:18.609Z,19.91
2018-06-08T05:45:27.473Z,19.92
2018-06-08T05:46:36.610Z,19.88
2018-06-08T05:47:45.473Z,19.95
2018-06-08T05:48:54.335Z,19.91
2018-06-08T05:50:03.201Z,19.94
2018-06-08T05:51:12.065Z,19.95
2018-06-08T05:52:21.080Z,19.95
2018-06-08T05:53:30.231Z,19.99
2018-06-08T05:54:39.094Z,19.94
2018-06-08T05:55:47.958Z,20.05
2018-06-08T05:56:57.100Z,20.03
2018-06-08T05:58:06.254Z,20.11
2018-06-08T05:59:15.399Z,20.13
2018-06-08T06:00:24.264Z,20.08
2018-06-08T06:01:33.131Z,20.18
2018-06-08T06:02:41.998Z,20.16
2018-06-08T06:03:51.062Z,20.11
2018-06-08T06:04:59.928Z,20.17
2018-06-08T06:06:09.087Z,20.24
2018-06-08T06:07:18.231Z,20.2
2018-06-08T06:08:27.098Z,20.23
2018-06-08T06:09:36.112Z,20.33
2018-06-08T06:10:44.981Z,20.33
2018-06-08T06:11:53.842Z,20.33
2018-06-08T06:13:02.705Z,20.41
2018-06-08T06:14:11.846Z,20.31
2018-06-08T06:15:21.037Z,20.43
2018-06-08T06:16:29.902Z,20.41
2018-06-08T06:17:38.769Z,20.35
2018-06-08T06:18:47.644Z,20.41
2018-06-08T06:19:56.504Z,20.36
2018-06-08T06:21:05.523Z,20.43
2018-06-08T06:22:14.667Z,20.51
2018-06-08T06:23:23.532Z,20.51
2018-06-08T06:24:32.399Z,20.48
2018-06-08T06:25:41.552Z,20.54
2018-06-08T06:26:50.694Z,20.59
2018-06-08T06:27:59.562Z,20.67
2018-06-08T06:29:08.424Z,20.7
2018-06-08T06:30:17.293Z,20.72
2018-06-08T06:31:26.156Z,20.72
2018-06-08T06:32:35.298Z,20.74
2018-06-08T06:33:44.164Z,20.8
2018-06-08T06:34:53.306Z,20.76
2018-06-08T06:36:02.463Z,20.79
2018-06-08T06:37:11.332Z,20.74
2018-06-08T06:38:20.198Z,20.92
2018-06-08T06:39:29.069Z,20.92
2018-06-08T06:40:38.221Z,20.95
2018-06-08T06:41:47.082Z,20.97
2018-06-08T06:42:55.943Z,20.99
2018-06-08T06:44:04.816Z,20.92
2018-06-08T06:45:13.954Z,21.04
2018-06-08T06:46:23.094Z,21.06
2018-06-08T06:47:31.963Z,21.21
2018-06-08T06:48:40.824Z,21.21
2018-06-08T06:49:49.697Z,21.09
2018-06-08T06:50:58.561Z,21.14
2018-06-08T06:52:08.158Z,21.14
2018-06-08T06:53:17.300Z,21.27
2018-06-08T06:54:26.165Z,21.31
2018-06-08T06:55:35.037Z,21.27
2018-06-08T06:56:44.177Z,21.35
2018-06-08T06:57:53.472Z,21.37
2018-06-08T06:59:02.336Z,21.46
2018-06-08T07:00:11.201Z,21.61
2018-06-08T07:01:20.071Z,21.65
2018-06-08T07:02:28.933Z,21.67
2018-06-08T07:03:37.854Z,21.64
2018-06-08T07:04:46.719Z,21.69
2018-06-08T07:05:55.588Z,21.62
2018-06-08T07:07:04.730Z,21.79
2018-06-08T07:08:13.871Z,21.88
2018-06-08T07:09:22.887Z,21.91
2018-06-08T07:10:31.752Z,21.92
2018-06-08T07:11:40.625Z,22
2018-06-08T07:12:49.798Z,22
2018-06-08T07:13:58.660Z,21.94
2018-06-08T07:15:07.878Z,22.05
2018-06-08T07:16:17.304Z,21.96
2018-06-08T07:17:26.169Z,22.03
2018-06-08T07:18:35.035Z,21.98
2018-06-08T07:19:44.214Z,22.15
2018-06-08T07:20:53.228Z,22.18
2018-06-08T07:22:02.097Z,22.12
2018-06-08T07:23:10.962Z,22.33
2018-06-08T07:24:19.837Z,22.33
2018-06-08T07:25:28.983Z,22.3
2018-06-08T07:26:37.995Z,22.36
2018-06-08T07:27:46.864Z,22.52
2018-06-08T07:28:56.003Z,22.43
2018-06-08T07:30:04.870Z,22.52
2018-06-08T07:31:14.010Z,22.52
2018-06-08T07:32:22.927Z,22.65
2018-06-08T07:33:31.793Z,22.61
2018-06-08T07:34:40.933Z,22.65
2018-06-08T07:35:50.079Z,22.75
2018-06-08T07:36:59.507Z,22.73
2018-06-08T07:38:08.425Z,22.82
2018-06-08T07:39:17.569Z,22.8
2018-06-08T07:40:26.436Z,22.82
2018-06-08T07:41:35.303Z,22.94
2018-06-08T07:42:44.173Z,22.94
2018-06-08T07:43:53.140Z,22.98
2018-06-08T07:45:02.009Z,22.91
2018-06-08T07:46:11.201Z,22.95
2018-06-08T07:47:20.343Z,23.02
2018-06-08T07:48:29.211Z,23.1
2018-06-08T07:49:38.509Z,23.31
2018-06-08T07:50:47.377Z,23.23
2018-06-08T07:51:56.238Z,23.22
2018-06-08T07:53:05.107Z,23.19
2018-06-08T07:54:13.979Z,23.19
2018-06-08T07:55:23.273Z,23.33
2018-06-08T07:56:32.140Z,23.51
2018-06-08T07:57:41.007Z,23.61
2018-06-08T07:58:49.874Z,23.57
2018-06-08T07:59:58.741Z,23.61
2018-06-08T08:01:07.727Z,23.66
2018-06-08T08:02:17.207Z,23.85
2018-06-08T08:03:26.074Z,23.85
2018-06-08T08:04:34.941Z,23.84
2018-06-08T08:05:43.809Z,23.93
2018-06-08T08:06:52.725Z,23.9
2018-06-08T08:09:10.461Z,23.94
2018-06-08T08:10:19.948Z,24
2018-06-08T08:11:28.822Z,23.97
2018-06-08T08:12:37.838Z,23.91
2018-06-08T08:13:46.704Z,23.94
2018-06-08T08:14:55.855Z,24
2018-06-08T08:16:05.000Z,23.93
2018-06-08T08:17:14.151Z,24.06
2018-06-08T08:18:23.472Z,24.21
2018-06-08T08:19:32.337Z,24.21
2018-06-08T08:20:41.207Z,24.3
2018-06-08T08:21:50.076Z,24.16
2018-06-08T08:22:58.945Z,24.22
2018-06-08T08:24:07.912Z,24.32
2018-06-08T08:25:17.328Z,24.37
2018-06-08T08:26:26.201Z,24.49
2018-06-08T08:27:35.342Z,24.6
2018-06-08T08:28:44.210Z,24.73
2018-06-08T08:29:53.227Z,24.77
2018-06-08T08:31:02.096Z,24.73
2018-06-08T08:32:11.239Z,24.93
2018-06-08T08:33:20.107Z,24.88
2018-06-08T08:34:29.256Z,24.99
2018-06-08T08:35:38.283Z,24.9
2018-06-08T08:36:47.145Z,25.06
2018-06-08T08:37:56.027Z,25.13
2018-06-08T08:39:04.883Z,25.08
2018-06-08T08:40:13.753Z,25.05
2018-06-08T08:41:22.769Z,25.24
2018-06-08T08:42:31.638Z,25.08
2018-06-08T08:43:40.810Z,25.17
2018-06-08T08:44:49.680Z,25.05
2018-06-08T08:45:58.829Z,25.15
2018-06-08T08:47:08.076Z,25.24
2018-06-08T08:48:16.942Z,25.08
2018-06-08T08:49:26.105Z,25.17
2018-06-08T08:50:34.972Z,25.32
2018-06-08T08:51:43.869Z,25.39
2018-06-08T08:52:53.195Z,25.42
2018-06-08T08:54:02.063Z,25.46
2018-06-08T08:55:10.937Z,25.32
2018-06-08T08:56:20.083Z,25.42
2018-06-08T08:57:28.954Z,25.55
2018-06-08T08:58:37.873Z,25.47
2018-06-08T08:59:47.017Z,25.51
2018-06-08T09:00:55.886Z,25.69
2018-06-08T09:02:04.751Z,25.85
2018-06-08T09:03:13.669Z,25.79
2018-06-08T09:04:22.891Z,25.88
2018-06-08T09:05:31.760Z,25.9
2018-06-08T09:06:40.906Z,25.79
2018-06-08T09:07:49.773Z,25.88
2018-06-08T09:08:58.640Z,25.92
2018-06-08T09:10:07.708Z,25.92
2018-06-08T09:11:16.573Z,25.72
2018-06-08T09:12:25.724Z,25.79
2018-06-08T09:13:34.592Z,25.92
2018-06-08T09:14:43.461Z,26.05
2018-06-08T09:15:52.604Z,26.07
2018-06-08T09:17:01.474Z,26.21
2018-06-08T09:18:10.620Z,26.21
2018-06-08T09:19:19.759Z,26.2
2018-06-08T09:20:28.906Z,26.09
2018-06-08T09:21:37.775Z,26.2
2018-06-08T09:22:46.647Z,26.26
2018-06-08T09:23:55.521Z,26.45
2018-06-08T09:25:04.382Z,26.32
2018-06-08T09:26:13.250Z,26.4
2018-06-08T09:27:22.277Z,26.28
2018-06-08T09:28:31.140Z,26.26
2018-06-08T09:29:40.009Z,26.25
2018-06-08T09:30:48.900Z,26.26
2018-06-08T09:31:57.749Z,26.26
2018-06-08T09:33:06.961Z,26.32
2018-06-08T09:34:15.811Z,26.44
2018-06-08T09:35:24.690Z,26.33
2018-06-08T09:36:33.832Z,26.5
2018-06-08T09:37:42.701Z,26.33
2018-06-08T09:38:51.618Z,26.54
2018-06-08T09:40:00.551Z,26.63
2018-06-08T09:41:09.704Z,26.76
2018-06-08T09:42:18.573Z,26.94
2018-06-08T09:43:27.442Z,26.81
2018-06-08T09:44:36.412Z,26.65
2018-06-08T09:45:45.556Z,26.63
2018-06-08T09:46:54.424Z,26.66
2018-06-08T09:48:03.305Z,26.67
2018-06-08T09:49:12.736Z,26.67
2018-06-08T09:50:22.032Z,26.76
2018-06-08T09:51:30.896Z,26.81
2018-06-08T09:52:39.772Z,26.91
2018-06-08T09:53:48.634Z,26.84
2018-06-08T09:54:57.510Z,26.81
2018-06-08T09:56:06.627Z,26.77
2018-06-08T09:57:15.495Z,26.97
2018-06-08T09:58:24.364Z,26.94
2018-06-08T09:59:33.233Z,26.92
2018-06-08T10:00:42.386Z,26.88
2018-06-08T10:01:51.982Z,27.04
2018-06-08T10:03:00.860Z,27.18
2018-06-08T10:04:09.735Z,27.25
2018-06-08T10:05:18.630Z,27.4
2018-06-08T10:06:27.785Z,27.18
2018-06-08T10:07:36.999Z,27.22
2018-06-08T10:08:45.878Z,27.41
2018-06-08T10:09:54.756Z,27.4
2018-06-08T10:11:03.633Z,27.49
2018-06-08T10:12:12.791Z,27.41
2018-06-08T10:13:21.821Z,27.63
2018-06-08T10:14:30.697Z,27.69
2018-06-08T10:15:39.576Z,27.75
2018-06-08T10:16:48.459Z,27.74
2018-06-08T10:17:57.337Z,27.78
2018-06-08T10:19:06.369Z,27.87
2018-06-08T10:20:15.243Z,27.79
2018-06-08T10:21:24.117Z,27.82
2018-06-08T10:22:33.260Z,27.94
2018-06-08T10:23:42.133Z,28.09
2018-06-08T10:24:51.108Z,27.88
2018-06-08T10:26:00.252Z,27.88
2018-06-08T10:27:09.121Z,27.9
2018-06-08T10:28:18.354Z,27.88
2018-06-08T10:29:27.785Z,27.77
2018-06-08T10:30:36.757Z,27.72
2018-06-08T10:31:45.900Z,27.78
2018-06-08T10:32:55.049Z,27.96
2018-06-08T10:34:04.309Z,28.04
2018-06-08T10:35:13.168Z,28.19
2018-06-08T10:36:22.100Z,28.21
2018-06-08T10:37:31.529Z,28.37
2018-06-08T10:38:40.399Z,28.39
2018-06-08T10:39:49.270Z,28.51
2018-06-08T10:40:58.461Z,28.27
2018-06-08T10:42:07.532Z,28.4
2018-06-08T10:43:16.754Z,28.29
2018-06-08T10:44:25.628Z,28.09
2018-06-08T10:45:34.780Z,28.09
2018-06-08T10:46:43.970Z,28.21
2018-06-08T10:47:53.332Z,28.4
2018-06-08T10:49:02.484Z,28.43
2018-06-08T10:50:11.360Z,28.48
2018-06-08T10:51:20.243Z,28.22
2018-06-08T10:52:29.916Z,28.36
2018-06-08T10:53:38.847Z,28.34
2018-06-08T10:54:47.725Z,28.4
2018-06-08T10:55:56.606Z,28.48
2018-06-08T10:57:05.483Z,28.25
2018-06-08T10:58:14.365Z,28.27
2018-06-08T10:59:23.401Z,28.31
2018-06-08T11:00:32.843Z,28.22
2018-06-08T11:01:42.013Z,28.33
2018-06-08T11:02:50.902Z,28.27
2018-06-08T11:03:59.799Z,28.61
2018-06-08T11:05:08.791Z,28.41
2018-06-08T11:06:17.729Z,28.54
2018-06-08T11:07:26.604Z,28.74
2018-06-08T11:08:35.472Z,28.58
2018-06-08T11:09:44.406Z,28.77
2018-06-08T11:10:53.275Z,28.95
2018-06-08T11:12:02.788Z,29
2018-06-08T11:13:11.967Z,29.24
2018-06-08T11:14:20.869Z,29.04
2018-06-08T11:15:29.740Z,29.18
2018-06-08T11:16:38.710Z,29.26
2018-06-08T11:17:47.584Z,29.14
2018-06-08T11:18:56.457Z,29.27
2018-06-08T11:20:05.329Z,29.14
2018-06-08T11:21:14.207Z,29.15
2018-06-08T11:22:23.133Z,29.16
2018-06-08T11:23:32.046Z,29.31
2018-06-08T11:24:40.921Z,29.39
2018-06-08T11:25:49.789Z,29.46
2018-06-08T11:26:59.002Z,29.45
2018-06-08T11:28:08.473Z,29.45
2018-06-08T11:29:17.342Z,29.64
2018-06-08T11:30:26.214Z,29.67
2018-06-08T11:31:35.365Z,29.52
2018-06-08T11:32:44.238Z,29.3
2018-06-08T11:33:53.160Z,29.39
2018-06-08T11:35:02.035Z,29.49
2018-06-08T11:36:10.906Z,29.65
2018-06-08T11:37:20.056Z,29.6
2018-06-08T11:38:29.211Z,29.67
2018-06-08T11:39:38.137Z,29.92
2018-06-08T11:40:47.018Z,29.79
2018-06-08T11:41:55.902Z,29.78
2018-06-08T11:43:05.058Z,29.64
2018-06-08T11:44:13.935Z,29.78
2018-06-08T11:45:23.335Z,29.87
2018-06-08T11:46:32.493Z,29.94
2018-06-08T11:47:41.645Z,29.95
2018-06-08T11:48:50.803Z,30.1
2018-06-08T11:49:59.667Z,30.42
2018-06-08T11:51:08.592Z,30.47
2018-06-08T11:52:17.768Z,30.67
2018-06-08T11:53:26.940Z,30.84
2018-06-08T11:54:36.091Z,30.86
2018-06-08T11:55:44.966Z,30.88
2018-06-08T11:56:54.217Z,31.09
2018-06-08T11:58:03.094Z,30.7
2018-06-08T11:59:12.246Z,30.8
2018-06-08T12:00:21.224Z,30.62
2018-06-08T12:01:30.550Z,30.76
2018-06-08T12:02:39.836Z,30.69
2018-06-08T12:03:48.710Z,30.76
2018-06-08T12:04:57.656Z,30.86
2018-06-08T12:06:06.857Z,30.88
2018-06-08T12:07:15.757Z,30.95
2018-06-08T12:08:24.684Z,30.95
2018-06-08T12:09:33.561Z,31.04
2018-06-08T12:10:42.710Z,31.04
2018-06-08T12:11:51.630Z,31.12
2018-06-08T12:13:00.457Z,30.73
2018-06-08T12:14:09.661Z,30.77
2018-06-08T12:15:18.541Z,30.84
2018-06-08T12:16:27.414Z,30.77
2018-06-08T12:17:36.327Z,30.88
2018-06-08T12:18:45.815Z,30.84
2018-06-08T12:19:54.700Z,31.02
2018-06-08T12:21:03.647Z,31.09
2018-06-08T12:22:12.522Z,31.12
2018-06-08T12:23:21.395Z,31.2
2018-06-08T12:24:30.277Z,31.1
2018-06-08T12:25:39.195Z,31.28
2018-06-08T12:26:48.348Z,31.39
2018-06-08T12:27:57.225Z,31.53
2018-06-08T12:29:06.377Z,31.68
2018-06-08T12:30:15.251Z,31.7
2018-06-08T12:31:24.479Z,31.81
2018-06-08T12:32:33.358Z,31.88
2018-06-08T12:33:42.235Z,32.01
2018-06-08T12:34:51.112Z,32.21
2018-06-08T12:35:59.991Z,32.3
2018-06-08T12:37:09.216Z,32.14
2018-06-08T12:38:18.090Z,32.47
2018-06-08T12:39:27.245Z,32.38
2018-06-08T12:40:36.406Z,32.43
2018-06-08T12:41:45.563Z,32.62
2018-06-08T12:42:54.591Z,32.74
2018-06-08T12:44:03.472Z,32.5
2018-06-08T12:45:12.351Z,32.35
2018-06-08T12:46:21.505Z,32.52
2018-06-08T12:47:30.383Z,32.66
2018-06-08T12:48:39.583Z,32.77
2018-06-08T12:49:48.461Z,32.69
2018-06-08T12:50:57.345Z,32.78
2018-06-08T12:52:06.222Z,32.79
2018-06-08T12:53:15.101Z,32.52
2018-06-08T12:54:24.406Z,32.21
2018-06-08T12:55:33.289Z,32.41
2018-06-08T13:07:26.759Z,32.5
2018-06-08T13:08:35.636Z,32.67
2018-06-08T13:09:44.576Z,32.66
2018-06-08T13:10:53.966Z,32.72
2018-06-08T13:12:03.125Z,32.78
2018-06-08T13:13:12.009Z,32.82
2018-06-08T13:14:20.886Z,32.77
2018-06-08T13:15:29.764Z,32.82
2018-06-08T13:16:38.669Z,32.74
2018-06-08T13:17:48.680Z,32.87
2018-06-08T13:18:57.557Z,32.85
2018-06-08T13:20:06.444Z,32.82
2018-06-08T13:21:15.359Z,32.89
2018-06-08T13:22:24.193Z,32.78
2018-06-08T13:23:33.674Z,32.6
2018-06-08T13:24:42.552Z,32.65
2018-06-08T13:25:51.427Z,32.72
2018-06-08T13:27:00.300Z,32.55
2018-06-08T13:28:09.177Z,32.6
2018-06-08T13:29:18.053Z,32.7
2018-06-08T13:30:26.930Z,32.65
2018-06-08T13:31:35.807Z,32.7
2018-06-08T13:32:44.684Z,32.63
2018-06-08T13:33:53.558Z,32.63
2018-06-08T13:35:02.486Z,32.5
2018-06-08T13:36:11.637Z,32.45
2018-06-08T13:37:20.512Z,32.56
2018-06-08T13:38:29.389Z,32.38
2018-06-08T13:39:38.297Z,32.45
2018-06-08T13:40:47.607Z,32.38
2018-06-08T13:41:56.482Z,32.3
2018-06-08T13:43:05.356Z,32.3
2018-06-08T13:44:14.231Z,32.21
2018-06-08T13:45:23.104Z,32.21
2018-06-08T13:46:32.028Z,32.19
2018-06-08T13:47:41.177Z,32.21
2018-06-08T13:48:50.053Z,32.18
2018-06-08T13:49:59.202Z,32.15
2018-06-08T13:51:08.076Z,32.14
2018-06-08T13:52:17.000Z,32.04
2018-06-08T13:53:25.882Z,32.01
2018-06-08T13:54:34.754Z,32
2018-06-08T13:55:43.971Z,31.95
2018-06-08T13:56:52.779Z,31.95
2018-06-08T13:58:01.803Z,31.69
2018-06-08T13:59:10.680Z,31.68
2018-06-08T14:00:19.832Z,31.7
2018-06-08T14:01:28.704Z,31.76
2018-06-08T14:02:37.864Z,31.8
2018-06-08T14:03:47.066Z,31.65
2018-06-08T14:04:55.941Z,31.7
2018-06-08T14:06:05.897Z,31.66
2018-06-08T14:07:15.759Z,31.7
2018-06-08T14:08:24.632Z,31.62
2018-06-08T14:09:33.787Z,31.62
2018-06-08T14:10:42.935Z,31.5
2018-06-08T14:11:52.142Z,31.43
2018-06-08T14:13:00.992Z,31.38
2018-06-08T14:14:09.864Z,31.34
2018-06-08T14:15:18.885Z,31.32
2018-06-08T14:16:27.758Z,31.2
2018-06-08T14:17:36.937Z,31.1
2018-06-08T14:18:45.811Z,31.14
2018-06-08T14:19:54.684Z,31.13
2018-06-08T14:21:03.554Z,31.14
2018-06-08T14:22:12.702Z,31.12
2018-06-08T14:23:22.139Z,31.12
2018-06-08T14:24:31.575Z,31.02
2018-06-08T14:25:40.760Z,31.09
2018-06-08T14:26:50.928Z,30.95
2018-06-08T14:28:03.528Z,31.04
2018-06-08T14:29:14.728Z,31.01
2018-06-08T14:30:24.557Z,31.06
2018-06-08T14:31:34.125Z,30.99
2018-06-08T14:32:43.771Z,30.86
2018-06-08T14:33:52.660Z,30.77
2018-06-08T14:35:01.886Z,30.83
2018-06-08T14:36:10.897Z,30.75
2018-06-08T14:37:20.204Z,30.76
2018-06-08T14:38:29.412Z,30.64
2018-06-08T14:39:39.273Z,30.58
2018-06-08T14:40:48.421Z,30.57
2018-06-08T14:41:57.572Z,30.54
2018-06-08T14:43:06.449Z,30.37
2018-06-08T14:44:15.516Z,30.37
2018-06-08T14:45:24.598Z,30.35
2018-06-08T14:46:33.503Z,30.46
2018-06-08T14:47:42.820Z,30.46
2018-06-08T14:48:51.719Z,30.45
2018-06-08T14:50:01.070Z,30.37
2018-06-08T14:51:10.372Z,30.24
2018-06-08T14:52:19.315Z,30.16
2018-06-08T14:53:28.217Z,30.15
2018-06-08T14:54:37.179Z,30.01
2018-06-08T14:55:46.474Z,30.02
2018-06-08T14:56:55.425Z,30.01
2018-06-08T14:58:04.526Z,29.87
2018-06-08T14:59:13.423Z,29.86
2018-06-08T15:00:22.321Z,29.92
2018-06-08T15:01:31.223Z,29.86
2018-06-08T15:02:40.182Z,29.82
2018-06-08T15:03:49.064Z,29.83
2018-06-08T15:04:58.051Z,29.78